sensor_id;sensor_type;location;lat;lon;timestamp;temperature;humidity
8475;DHT22;4274;52.012;8.448;2023-01-28T00:01:04;0.80;99.90
8475;DHT22;4274;52.012;8.448;2023-01-28T00:03:30;0.80;99.90
8475;DHT22;4274;52.012;8.448;2023-01-28T00:06:04;0.80;99.90
8475;DHT22;4274;52.012;8.448;2023-01-28T00:08:29;0.70;99.90
8475;DHT22;4274;52.012;8.448;2023-01-28T00:10:58;0.70;99.90
8475;DHT22;4274;52.012;8.448;2023-01-28T00:13:25;0.70;99.90
8475;DHT22;4274;52.012;8.448;2023-01-28T00:16:05;0.70;99.90
8475;DHT22;4274;52.012;8.448;2023-01-28T00:18:32;0.70;99.90
8475;DHT22;4274;52.012;8.448;2023-01-28T00:21:02;0.70;99.90
8475;DHT22;4274;52.012;8.448;2023-01-28T00:23:30;0.80;99.90
8475;DHT22;4274;52.012;8.448;2023-01-28T00:26:00;0.80;99.90
8475;DHT22;4274;52.012;8.448;2023-01-28T00:28:25;0.70;99.90
8475;DHT22;4274;52.012;8.448;2023-01-28T00:30:51;0.70;99.90
8475;DHT22;4274;52.012;8.448;2023-01-28T00:33:17;0.70;99.90
8475;DHT22;4274;52.012;8.448;2023-01-28T00:35:42;0.60;99.90
8475;DHT22;4274;52.012;8.448;2023-01-28T00:38:08;0.70;99.90
8475;DHT22;4274;52.012;8.448;2023-01-28T00:40:34;0.60;99.90
8475;DHT22;4274;52.012;8.448;2023-01-28T00:43:00;0.60;99.90
8475;DHT22;4274;52.012;8.448;2023-01-28T00:45:26;0.60;99.90
8475;DHT22;4274;52.012;8.448;2023-01-28T00:47:51;0.70;99.90
8475;DHT22;4274;52.012;8.448;2023-01-28T00:50:17;0.70;99.90
8475;DHT22;4274;52.012;8.448;2023-01-28T00:52:42;0.60;99.90
8475;DHT22;4274;52.012;8.448;2023-01-28T00:55:08;0.60;99.90
8475;DHT22;4274;52.012;8.448;2023-01-28T00:57:34;0.60;99.90
8475;DHT22;4274;52.012;8.448;2023-01-28T01:00:00;0.60;99.90
8475;DHT22;4274;52.012;8.448;2023-01-28T01:02:25;0.60;99.90
8475;DHT22;4274;52.012;8.448;2023-01-28T01:04:51;0.60;99.90
8475;DHT22;4274;52.012;8.448;2023-01-28T01:07:24;0.60;99.90
8475;DHT22;4274;52.012;8.448;2023-01-28T01:09:58;0.60;99.90
8475;DHT22;4274;52.012;8.448;2023-01-28T01:12:24;0.60;99.90
8475;DHT22;4274;52.012;8.448;2023-01-28T01:14:50;0.60;99.90
8475;DHT22;4274;52.012;8.448;2023-01-28T01:17:15;0.60;99.90
8475;DHT22;4274;52.012;8.448;2023-01-28T01:19:41;0.60;99.90
8475;DHT22;4274;52.012;8.448;2023-01-28T01:22:06;0.60;99.90
8475;DHT22;4274;52.012;8.448;2023-01-28T01:24:32;0.60;99.90
8475;DHT22;4274;52.012;8.448;2023-01-28T01:26:58;0.70;99.90
8475;DHT22;4274;52.012;8.448;2023-01-28T01:29:24;0.60;99.90
8475;DHT22;4274;52.012;8.448;2023-01-28T01:31:50;0.60;99.90
8475;DHT22;4274;52.012;8.448;2023-01-28T01:34:15;0.60;99.90
8475;DHT22;4274;52.012;8.448;2023-01-28T01:36:41;0.60;99.90
8475;DHT22;4274;52.012;8.448;2023-01-28T01:39:11;0.60;99.90
8475;DHT22;4274;52.012;8.448;2023-01-28T01:41:36;0.60;99.90
8475;DHT22;4274;52.012;8.448;2023-01-28T01:44:04;0.60;99.90
8475;DHT22;4274;52.012;8.448;2023-01-28T01:49:31;0.60;99.90
8475;DHT22;4274;52.012;8.448;2023-01-28T01:52:02;0.60;99.90
8475;DHT22;4274;52.012;8.448;2023-01-28T01:54:32;0.50;99.90
8475;DHT22;4274;52.012;8.448;2023-01-28T01:56:58;0.60;99.90
8475;DHT22;4274;52.012;8.448;2023-01-28T01:59:28;0.60;99.90
8475;DHT22;4274;52.012;8.448;2023-01-28T02:01:55;0.60;99.90
8475;DHT22;4274;52.012;8.448;2023-01-28T02:04:28;0.60;99.90
8475;DHT22;4274;52.012;8.448;2023-01-28T02:06:55;0.60;99.90
8475;DHT22;4274;52.012;8.448;2023-01-28T02:09:26;0.50;99.90
8475;DHT22;4274;52.012;8.448;2023-01-28T02:11:58;0.50;99.90
8475;DHT22;4274;52.012;8.448;2023-01-28T02:14:28;0.50;99.90
8475;DHT22;4274;52.012;8.448;2023-01-28T02:16:55;0.50;99.90
8475;DHT22;4274;52.012;8.448;2023-01-28T02:19:21;0.50;99.90
8475;DHT22;4274;52.012;8.448;2023-01-28T02:22:00;0.50;99.90
8475;DHT22;4274;52.012;8.448;2023-01-28T02:31:06;0.50;99.90
8475;DHT22;4274;52.012;8.448;2023-01-28T02:33:33;0.50;99.90
8475;DHT22;4274;52.012;8.448;2023-01-28T02:36:26;0.50;99.90
8475;DHT22;4274;52.012;8.448;2023-01-28T02:38:57;0.50;99.90
8475;DHT22;4274;52.012;8.448;2023-01-28T02:41:28;0.40;99.90
8475;DHT22;4274;52.012;8.448;2023-01-28T02:43:56;0.50;99.90
8475;DHT22;4274;52.012;8.448;2023-01-28T02:46:33;0.50;99.90
8475;DHT22;4274;52.012;8.448;2023-01-28T02:49:38;0.50;99.90
8475;DHT22;4274;52.012;8.448;2023-01-28T02:52:24;0.50;99.90
8475;DHT22;4274;52.012;8.448;2023-01-28T02:58:21;0.50;99.90
8475;DHT22;4274;52.012;8.448;2023-01-28T03:01:04;0.50;99.90
8475;DHT22;4274;52.012;8.448;2023-01-28T03:06:14;0.50;99.90
8475;DHT22;4274;52.012;8.448;2023-01-28T03:08:58;0.50;99.90
8475;DHT22;4274;52.012;8.448;2023-01-28T03:11:45;0.50;99.90
8475;DHT22;4274;52.012;8.448;2023-01-28T03:14:32;0.50;99.90
8475;DHT22;4274;52.012;8.448;2023-01-28T03:20:17;0.50;99.90
8475;DHT22;4274;52.012;8.448;2023-01-28T03:23:07;0.50;99.90
8475;DHT22;4274;52.012;8.448;2023-01-28T03:25:55;0.50;99.90
8475;DHT22;4274;52.012;8.448;2023-01-28T03:28:44;0.50;99.90
8475;DHT22;4274;52.012;8.448;2023-01-28T03:31:32;0.50;99.90
8475;DHT22;4274;52.012;8.448;2023-01-28T03:34:17;0.40;99.90
8475;DHT22;4274;52.012;8.448;2023-01-28T03:37:01;0.40;99.90
8475;DHT22;4274;52.012;8.448;2023-01-28T03:39:29;0.40;99.90
8475;DHT22;4274;52.012;8.448;2023-01-28T03:42:01;0.40;99.90
8475;DHT22;4274;52.012;8.448;2023-01-28T03:44:27;0.40;99.90
8475;DHT22;4274;52.012;8.448;2023-01-28T03:47:12;0.40;99.90
8475;DHT22;4274;52.012;8.448;2023-01-28T03:49:43;0.40;99.90
8475;DHT22;4274;52.012;8.448;2023-01-28T03:52:14;0.40;99.90
8475;DHT22;4274;52.012;8.448;2023-01-28T03:54:41;0.40;99.90
8475;DHT22;4274;52.012;8.448;2023-01-28T03:57:06;0.40;99.90
8475;DHT22;4274;52.012;8.448;2023-01-28T03:59:33;0.40;99.90
8475;DHT22;4274;52.012;8.448;2023-01-28T04:01:58;0.40;99.90
8475;DHT22;4274;52.012;8.448;2023-01-28T04:04:24;0.40;99.90
8475;DHT22;4274;52.012;8.448;2023-01-28T04:06:51;0.40;99.90
8475;DHT22;4274;52.012;8.448;2023-01-28T04:09:16;0.30;99.90
8475;DHT22;4274;52.012;8.448;2023-01-28T04:11:42;0.30;99.90
8475;DHT22;4274;52.012;8.448;2023-01-28T04:14:08;0.30;99.90
8475;DHT22;4274;52.012;8.448;2023-01-28T04:16:33;0.30;99.90
8475;DHT22;4274;52.012;8.448;2023-01-28T04:18:59;0.30;99.90
8475;DHT22;4274;52.012;8.448;2023-01-28T04:21:24;0.40;99.90
8475;DHT22;4274;52.012;8.448;2023-01-28T04:23:50;0.40;99.90
8475;DHT22;4274;52.012;8.448;2023-01-28T04:26:15;0.40;99.90
8475;DHT22;4274;52.012;8.448;2023-01-28T04:28:42;0.40;99.90
8475;DHT22;4274;52.012;8.448;2023-01-28T04:31:07;0.40;99.90
8475;DHT22;4274;52.012;8.448;2023-01-28T04:33:33;0.50;99.90
8475;DHT22;4274;52.012;8.448;2023-01-28T04:35:58;0.40;99.90
8475;DHT22;4274;52.012;8.448;2023-01-28T04:38:24;0.40;99.90
8475;DHT22;4274;52.012;8.448;2023-01-28T04:40:51;0.40;99.90
8475;DHT22;4274;52.012;8.448;2023-01-28T04:43:16;0.40;99.90
8475;DHT22;4274;52.012;8.448;2023-01-28T04:45:42;0.30;99.90
8475;DHT22;4274;52.012;8.448;2023-01-28T04:48:08;0.40;99.90
8475;DHT22;4274;52.012;8.448;2023-01-28T04:50:33;0.40;99.90
8475;DHT22;4274;52.012;8.448;2023-01-28T04:52:59;0.40;99.90
8475;DHT22;4274;52.012;8.448;2023-01-28T04:55:25;0.40;99.90
8475;DHT22;4274;52.012;8.448;2023-01-28T04:57:50;0.40;99.90
8475;DHT22;4274;52.012;8.448;2023-01-28T05:00:16;0.40;99.90
8475;DHT22;4274;52.012;8.448;2023-01-28T05:02:42;0.40;99.90
8475;DHT22;4274;52.012;8.448;2023-01-28T05:05:08;0.30;99.90
8475;DHT22;4274;52.012;8.448;2023-01-28T05:07:34;0.40;99.90
8475;DHT22;4274;52.012;8.448;2023-01-28T05:10:00;0.40;99.90
8475;DHT22;4274;52.012;8.448;2023-01-28T05:12:25;0.40;99.90
8475;DHT22;4274;52.012;8.448;2023-01-28T05:14:51;0.30;99.90
8475;DHT22;4274;52.012;8.448;2023-01-28T05:17:16;0.30;99.90
8475;DHT22;4274;52.012;8.448;2023-01-28T05:19:42;0.30;99.90
8475;DHT22;4274;52.012;8.448;2023-01-28T05:22:08;0.30;99.90
8475;DHT22;4274;52.012;8.448;2023-01-28T05:24:33;0.30;99.90
8475;DHT22;4274;52.012;8.448;2023-01-28T05:26:59;0.30;99.90
8475;DHT22;4274;52.012;8.448;2023-01-28T05:29:24;0.30;99.90
8475;DHT22;4274;52.012;8.448;2023-01-28T05:31:50;0.30;99.90
8475;DHT22;4274;52.012;8.448;2023-01-28T05:34:16;0.30;99.90
8475;DHT22;4274;52.012;8.448;2023-01-28T05:36:41;0.30;99.90
8475;DHT22;4274;52.012;8.448;2023-01-28T05:39:07;0.30;99.90
8475;DHT22;4274;52.012;8.448;2023-01-28T05:41:33;0.30;99.90
8475;DHT22;4274;52.012;8.448;2023-01-28T05:43:59;0.30;99.90
8475;DHT22;4274;52.012;8.448;2023-01-28T05:46:24;0.30;99.90
8475;DHT22;4274;52.012;8.448;2023-01-28T05:48:50;0.30;99.90
8475;DHT22;4274;52.012;8.448;2023-01-28T05:51:16;0.30;99.90
8475;DHT22;4274;52.012;8.448;2023-01-28T05:53:42;0.30;99.90
8475;DHT22;4274;52.012;8.448;2023-01-28T05:56:07;0.30;99.90
8475;DHT22;4274;52.012;8.448;2023-01-28T05:58:33;0.30;99.90
8475;DHT22;4274;52.012;8.448;2023-01-28T06:00:59;0.20;99.90
8475;DHT22;4274;52.012;8.448;2023-01-28T06:03:24;0.20;99.90
8475;DHT22;4274;52.012;8.448;2023-01-28T06:05:50;0.20;99.90
8475;DHT22;4274;52.012;8.448;2023-01-28T06:08:15;0.20;99.90
8475;DHT22;4274;52.012;8.448;2023-01-28T06:10:41;0.20;99.90
8475;DHT22;4274;52.012;8.448;2023-01-28T06:13:06;0.20;99.90
8475;DHT22;4274;52.012;8.448;2023-01-28T06:15:32;0.20;99.90
8475;DHT22;4274;52.012;8.448;2023-01-28T06:17:58;0.20;99.90
8475;DHT22;4274;52.012;8.448;2023-01-28T06:20:24;0.20;99.90
8475;DHT22;4274;52.012;8.448;2023-01-28T06:22:50;0.20;99.90
8475;DHT22;4274;52.012;8.448;2023-01-28T06:25:16;0.20;99.90
8475;DHT22;4274;52.012;8.448;2023-01-28T06:27:42;0.10;99.90
8475;DHT22;4274;52.012;8.448;2023-01-28T06:30:08;0.20;99.90
8475;DHT22;4274;52.012;8.448;2023-01-28T06:32:34;0.10;99.90
8475;DHT22;4274;52.012;8.448;2023-01-28T06:35:00;0.20;99.90
8475;DHT22;4274;52.012;8.448;2023-01-28T06:37:26;0.10;99.90
8475;DHT22;4274;52.012;8.448;2023-01-28T06:39:51;0.10;99.90
8475;DHT22;4274;52.012;8.448;2023-01-28T06:42:17;0.20;99.90
8475;DHT22;4274;52.012;8.448;2023-01-28T06:44:43;0.10;99.90
8475;DHT22;4274;52.012;8.448;2023-01-28T06:47:08;0.20;99.90
8475;DHT22;4274;52.012;8.448;2023-01-28T06:49:35;0.20;99.90
8475;DHT22;4274;52.012;8.448;2023-01-28T06:52:01;0.20;99.90
8475;DHT22;4274;52.012;8.448;2023-01-28T06:54:29;0.20;99.90
8475;DHT22;4274;52.012;8.448;2023-01-28T06:56:54;0.20;99.90
8475;DHT22;4274;52.012;8.448;2023-01-28T06:59:20;0.10;99.90
8475;DHT22;4274;52.012;8.448;2023-01-28T07:01:45;0.20;99.90
8475;DHT22;4274;52.012;8.448;2023-01-28T07:04:11;0.20;99.90
8475;DHT22;4274;52.012;8.448;2023-01-28T07:06:37;0.30;99.90
8475;DHT22;4274;52.012;8.448;2023-01-28T07:09:02;0.30;99.90
8475;DHT22;4274;52.012;8.448;2023-01-28T07:11:28;0.30;99.90
8475;DHT22;4274;52.012;8.448;2023-01-28T07:13:54;0.30;99.90
8475;DHT22;4274;52.012;8.448;2023-01-28T07:16:19;0.30;99.90
8475;DHT22;4274;52.012;8.448;2023-01-28T07:18:45;0.30;99.90
8475;DHT22;4274;52.012;8.448;2023-01-28T07:21:10;0.30;99.90
8475;DHT22;4274;52.012;8.448;2023-01-28T07:23:36;0.20;99.90
8475;DHT22;4274;52.012;8.448;2023-01-28T07:26:04;0.20;99.90
8475;DHT22;4274;52.012;8.448;2023-01-28T07:28:30;0.10;99.90
8475;DHT22;4274;52.012;8.448;2023-01-28T07:30:56;0.10;99.90
8475;DHT22;4274;52.012;8.448;2023-01-28T07:33:22;0.10;99.90
8475;DHT22;4274;52.012;8.448;2023-01-28T07:35:48;0.10;99.90
8475;DHT22;4274;52.012;8.448;2023-01-28T07:38:14;0.10;99.90
8475;DHT22;4274;52.012;8.448;2023-01-28T07:40:40;0.10;99.90
8475;DHT22;4274;52.012;8.448;2023-01-28T07:43:07;0.10;99.90
8475;DHT22;4274;52.012;8.448;2023-01-28T07:45:33;0.10;99.90
8475;DHT22;4274;52.012;8.448;2023-01-28T07:48:00;0.10;99.90
8475;DHT22;4274;52.012;8.448;2023-01-28T07:50:27;0.20;99.90
8475;DHT22;4274;52.012;8.448;2023-01-28T07:52:56;0.20;99.90
8475;DHT22;4274;52.012;8.448;2023-01-28T07:55:23;0.20;99.90
8475;DHT22;4274;52.012;8.448;2023-01-28T08:00:19;0.40;99.90
8475;DHT22;4274;52.012;8.448;2023-01-28T08:02:44;0.40;99.90
8475;DHT22;4274;52.012;8.448;2023-01-28T08:05:18;0.50;99.90
8475;DHT22;4274;52.012;8.448;2023-01-28T08:07:44;0.50;99.90
8475;DHT22;4274;52.012;8.448;2023-01-28T08:10:11;0.60;99.90
8475;DHT22;4274;52.012;8.448;2023-01-28T08:12:38;0.60;99.90
8475;DHT22;4274;52.012;8.448;2023-01-28T08:15:04;0.60;99.90
8475;DHT22;4274;52.012;8.448;2023-01-28T08:17:30;0.60;99.90
8475;DHT22;4274;52.012;8.448;2023-01-28T08:19:56;0.70;99.90
8475;DHT22;4274;52.012;8.448;2023-01-28T08:22:25;0.70;99.90
8475;DHT22;4274;52.012;8.448;2023-01-28T08:24:51;0.70;99.90
8475;DHT22;4274;52.012;8.448;2023-01-28T08:27:16;0.70;99.90
8475;DHT22;4274;52.012;8.448;2023-01-28T08:29:42;0.70;99.90
8475;DHT22;4274;52.012;8.448;2023-01-28T08:32:09;0.70;99.90
8475;DHT22;4274;52.012;8.448;2023-01-28T08:34:35;0.80;99.90
8475;DHT22;4274;52.012;8.448;2023-01-28T08:37:00;0.80;99.90
8475;DHT22;4274;52.012;8.448;2023-01-28T08:39:26;0.80;99.90
8475;DHT22;4274;52.012;8.448;2023-01-28T08:41:51;0.80;99.90
8475;DHT22;4274;52.012;8.448;2023-01-28T08:44:17;0.80;99.90
8475;DHT22;4274;52.012;8.448;2023-01-28T08:46:43;0.90;99.90
8475;DHT22;4274;52.012;8.448;2023-01-28T08:49:08;0.90;99.90
8475;DHT22;4274;52.012;8.448;2023-01-28T08:51:34;0.90;99.90
8475;DHT22;4274;52.012;8.448;2023-01-28T08:53:59;0.90;99.90
8475;DHT22;4274;52.012;8.448;2023-01-28T08:56:25;0.90;99.90
8475;DHT22;4274;52.012;8.448;2023-01-28T08:58:50;0.90;99.90
8475;DHT22;4274;52.012;8.448;2023-01-28T09:01:16;0.90;99.90
8475;DHT22;4274;52.012;8.448;2023-01-28T09:03:42;0.90;99.90
8475;DHT22;4274;52.012;8.448;2023-01-28T09:06:07;0.80;99.90
8475;DHT22;4274;52.012;8.448;2023-01-28T09:08:33;0.90;99.90
8475;DHT22;4274;52.012;8.448;2023-01-28T09:10:59;0.90;99.90
8475;DHT22;4274;52.012;8.448;2023-01-28T09:13:25;0.80;99.90
8475;DHT22;4274;52.012;8.448;2023-01-28T09:15:51;0.70;99.90
8475;DHT22;4274;52.012;8.448;2023-01-28T09:18:17;0.70;99.90
8475;DHT22;4274;52.012;8.448;2023-01-28T09:20:43;0.70;99.90
8475;DHT22;4274;52.012;8.448;2023-01-28T09:23:09;0.70;99.90
8475;DHT22;4274;52.012;8.448;2023-01-28T09:25:35;0.80;99.90
8475;DHT22;4274;52.012;8.448;2023-01-28T09:28:01;0.80;99.90
8475;DHT22;4274;52.012;8.448;2023-01-28T09:30:27;0.90;99.90
8475;DHT22;4274;52.012;8.448;2023-01-28T09:32:54;0.90;99.90
8475;DHT22;4274;52.012;8.448;2023-01-28T09:35:20;0.90;99.90
8475;DHT22;4274;52.012;8.448;2023-01-28T09:37:46;0.90;99.90
8475;DHT22;4274;52.012;8.448;2023-01-28T09:40:41;0.90;99.90
8475;DHT22;4274;52.012;8.448;2023-01-28T09:45:57;0.90;99.90
8475;DHT22;4274;52.012;8.448;2023-01-28T09:48:35;1.00;99.90
8475;DHT22;4274;52.012;8.448;2023-01-28T09:51:05;1.00;99.90
8475;DHT22;4274;52.012;8.448;2023-01-28T09:53:36;0.90;99.90
8475;DHT22;4274;52.012;8.448;2023-01-28T09:56:09;0.90;99.90
8475;DHT22;4274;52.012;8.448;2023-01-28T09:58:35;0.90;99.90
8475;DHT22;4274;52.012;8.448;2023-01-28T10:01:28;1.00;99.90
8475;DHT22;4274;52.012;8.448;2023-01-28T10:07:12;1.10;99.90
8475;DHT22;4274;52.012;8.448;2023-01-28T10:09:57;1.20;99.90
8475;DHT22;4274;52.012;8.448;2023-01-28T10:15:31;1.20;99.90
8475;DHT22;4274;52.012;8.448;2023-01-28T10:18:08;1.10;99.90
8475;DHT22;4274;52.012;8.448;2023-01-28T10:20:43;1.10;99.90
8475;DHT22;4274;52.012;8.448;2023-01-28T10:23:15;1.20;99.90
8475;DHT22;4274;52.012;8.448;2023-01-28T10:25:44;1.20;99.90
8475;DHT22;4274;52.012;8.448;2023-01-28T10:28:27;1.30;99.90
8475;DHT22;4274;52.012;8.448;2023-01-28T10:30:53;1.50;99.90
8475;DHT22;4274;52.012;8.448;2023-01-28T10:33:35;1.50;99.90
8475;DHT22;4274;52.012;8.448;2023-01-28T10:36:02;1.60;99.90
8475;DHT22;4274;52.012;8.448;2023-01-28T10:38:29;1.70;99.90
8475;DHT22;4274;52.012;8.448;2023-01-28T10:40:59;1.70;99.90
8475;DHT22;4274;52.012;8.448;2023-01-28T10:43:29;1.80;99.90
8475;DHT22;4274;52.012;8.448;2023-01-28T10:46:21;1.90;99.90
8475;DHT22;4274;52.012;8.448;2023-01-28T10:48:59;1.90;99.90
8475;DHT22;4274;52.012;8.448;2023-01-28T10:51:36;1.80;99.90
8475;DHT22;4274;52.012;8.448;2023-01-28T10:54:03;1.70;99.90
8475;DHT22;4274;52.012;8.448;2023-01-28T10:56:42;1.60;99.90
8475;DHT22;4274;52.012;8.448;2023-01-28T11:01:58;1.60;99.90
8475;DHT22;4274;52.012;8.448;2023-01-28T11:04:26;1.60;99.90
8475;DHT22;4274;52.012;8.448;2023-01-28T11:07:03;1.60;99.90
8475;DHT22;4274;52.012;8.448;2023-01-28T11:09:34;1.60;99.90
8475;DHT22;4274;52.012;8.448;2023-01-28T11:12:20;1.60;99.90
8475;DHT22;4274;52.012;8.448;2023-01-28T11:14:51;1.60;99.90
8475;DHT22;4274;52.012;8.448;2023-01-28T11:17:19;1.60;99.90
8475;DHT22;4274;52.012;8.448;2023-01-28T11:19:45;1.60;99.90
8475;DHT22;4274;52.012;8.448;2023-01-28T11:24:46;1.70;99.90
8475;DHT22;4274;52.012;8.448;2023-01-28T11:27:15;1.70;99.90
8475;DHT22;4274;52.012;8.448;2023-01-28T11:29:42;1.80;99.90
8475;DHT22;4274;52.012;8.448;2023-01-28T11:32:19;1.80;99.90
8475;DHT22;4274;52.012;8.448;2023-01-28T11:34:53;1.80;99.90
8475;DHT22;4274;52.012;8.448;2023-01-28T11:37:23;1.80;99.90
8475;DHT22;4274;52.012;8.448;2023-01-28T11:40:15;1.90;99.90
8475;DHT22;4274;52.012;8.448;2023-01-28T11:42:41;2.00;99.90
8475;DHT22;4274;52.012;8.448;2023-01-28T11:45:19;2.20;99.90
8475;DHT22;4274;52.012;8.448;2023-01-28T11:48:07;2.30;99.90
8475;DHT22;4274;52.012;8.448;2023-01-28T11:50:46;2.70;99.90
8475;DHT22;4274;52.012;8.448;2023-01-28T12:09:57;9.40;99.90
8475;DHT22;4274;52.012;8.448;2023-01-28T12:12:36;10.20;99.90
8475;DHT22;4274;52.012;8.448;2023-01-28T12:16:01;10.80;98.80
8475;DHT22;4274;52.012;8.448;2023-01-28T12:21:04;11.00;97.30
8475;DHT22;4274;52.012;8.448;2023-01-28T12:26:53;11.40;96.40
8475;DHT22;4274;52.012;8.448;2023-01-28T12:29:34;11.80;96.80
8475;DHT22;4274;52.012;8.448;2023-01-28T12:35:21;11.70;94.70
8475;DHT22;4274;52.012;8.448;2023-01-28T12:38:13;11.80;94.00
8475;DHT22;4274;52.012;8.448;2023-01-28T12:43:18;11.40;92.30
8475;DHT22;4274;52.012;8.448;2023-01-28T12:45:53;10.70;92.30
8475;DHT22;4274;52.012;8.448;2023-01-28T12:48:33;10.00;92.30
8475;DHT22;4274;52.012;8.448;2023-01-28T12:51:07;9.20;93.40
8475;DHT22;4274;52.012;8.448;2023-01-28T12:56:30;8.00;95.90
8475;DHT22;4274;52.012;8.448;2023-01-28T12:59:06;7.50;97.00
8475;DHT22;4274;52.012;8.448;2023-01-28T13:07:13;5.80;99.80
8475;DHT22;4274;52.012;8.448;2023-01-28T13:09:48;5.60;99.90
8475;DHT22;4274;52.012;8.448;2023-01-28T13:12:16;5.60;99.90
8475;DHT22;4274;52.012;8.448;2023-01-28T13:14:43;5.50;99.90
8475;DHT22;4274;52.012;8.448;2023-01-28T13:17:28;5.40;99.90
8475;DHT22;4274;52.012;8.448;2023-01-28T13:19:54;5.40;99.90
8475;DHT22;4274;52.012;8.448;2023-01-28T13:22:27;5.30;99.90
8475;DHT22;4274;52.012;8.448;2023-01-28T13:24:53;5.00;99.90
8475;DHT22;4274;52.012;8.448;2023-01-28T13:27:27;4.60;99.90
8475;DHT22;4274;52.012;8.448;2023-01-28T13:30:27;4.20;99.90
8475;DHT22;4274;52.012;8.448;2023-01-28T13:32:59;4.00;99.90
8475;DHT22;4274;52.012;8.448;2023-01-28T13:35:36;3.70;99.90
8475;DHT22;4274;52.012;8.448;2023-01-28T13:38:17;3.50;99.90
8475;DHT22;4274;52.012;8.448;2023-01-28T13:40:53;3.20;99.90
8475;DHT22;4274;52.012;8.448;2023-01-28T13:43:37;3.20;99.90
8475;DHT22;4274;52.012;8.448;2023-01-28T13:46:10;3.10;99.90
8475;DHT22;4274;52.012;8.448;2023-01-28T13:48:48;3.00;99.90
8475;DHT22;4274;52.012;8.448;2023-01-28T13:51:30;2.80;99.90
8475;DHT22;4274;52.012;8.448;2023-01-28T13:56:41;2.70;99.90
8475;DHT22;4274;52.012;8.448;2023-01-28T14:02:02;2.70;99.90
8475;DHT22;4274;52.012;8.448;2023-01-28T14:07:36;2.50;99.90
8475;DHT22;4274;52.012;8.448;2023-01-28T14:10:24;2.50;99.90
8475;DHT22;4274;52.012;8.448;2023-01-28T14:13:08;2.40;99.90
8475;DHT22;4274;52.012;8.448;2023-01-28T14:15:48;2.20;99.90
8475;DHT22;4274;52.012;8.448;2023-01-28T14:18:39;2.00;99.90
8475;DHT22;4274;52.012;8.448;2023-01-28T14:21:19;1.90;99.90
8475;DHT22;4274;52.012;8.448;2023-01-28T14:23:48;1.80;99.90
8475;DHT22;4274;52.012;8.448;2023-01-28T14:31:31;1.50;99.90
8475;DHT22;4274;52.012;8.448;2023-01-28T14:36:40;1.40;99.90
8475;DHT22;4274;52.012;8.448;2023-01-28T14:39:25;1.40;99.90
8475;DHT22;4274;52.012;8.448;2023-01-28T14:41:52;1.40;99.90
8475;DHT22;4274;52.012;8.448;2023-01-28T14:44:35;1.40;99.90
8475;DHT22;4274;52.012;8.448;2023-01-28T14:50:42;1.30;99.90
8475;DHT22;4274;52.012;8.448;2023-01-28T14:59:02;1.20;99.90
8475;DHT22;4274;52.012;8.448;2023-01-28T15:01:30;1.30;99.90
8475;DHT22;4274;52.012;8.448;2023-01-28T15:03:56;1.30;99.90
8475;DHT22;4274;52.012;8.448;2023-01-28T15:06:24;1.40;99.90
8475;DHT22;4274;52.012;8.448;2023-01-28T15:09:03;1.40;99.90
8475;DHT22;4274;52.012;8.448;2023-01-28T15:11:29;1.30;99.90
8475;DHT22;4274;52.012;8.448;2023-01-28T15:13:57;1.20;99.90
8475;DHT22;4274;52.012;8.448;2023-01-28T15:16:28;1.10;99.90
8475;DHT22;4274;52.012;8.448;2023-01-28T15:18:55;1.10;99.90
8475;DHT22;4274;52.012;8.448;2023-01-28T15:21:23;1.10;99.90
8475;DHT22;4274;52.012;8.448;2023-01-28T15:23:59;1.10;99.90
8475;DHT22;4274;52.012;8.448;2023-01-28T15:26:31;1.10;99.90
8475;DHT22;4274;52.012;8.448;2023-01-28T15:28:57;1.00;99.90
8475;DHT22;4274;52.012;8.448;2023-01-28T15:31:26;0.90;99.90
8475;DHT22;4274;52.012;8.448;2023-01-28T15:36:21;0.90;99.90
8475;DHT22;4274;52.012;8.448;2023-01-28T15:38:47;0.90;99.90
8475;DHT22;4274;52.012;8.448;2023-01-28T15:41:15;0.80;99.90
8475;DHT22;4274;52.012;8.448;2023-01-28T15:43:46;0.70;99.90
8475;DHT22;4274;52.012;8.448;2023-01-28T15:46:12;0.60;99.90
8475;DHT22;4274;52.012;8.448;2023-01-28T15:48:41;0.60;99.90
8475;DHT22;4274;52.012;8.448;2023-01-28T15:51:18;0.50;99.90
8475;DHT22;4274;52.012;8.448;2023-01-28T15:53:46;0.40;99.90
8475;DHT22;4274;52.012;8.448;2023-01-28T15:56:14;0.30;99.90
8475;DHT22;4274;52.012;8.448;2023-01-28T15:58:41;0.30;99.90
8475;DHT22;4274;52.012;8.448;2023-01-28T16:03:33;0.10;99.90
8475;DHT22;4274;52.012;8.448;2023-01-28T16:06:03;0.10;99.90
8475;DHT22;4274;52.012;8.448;2023-01-28T16:08:35;0.00;99.90
8475;DHT22;4274;52.012;8.448;2023-01-28T16:11:01;-0.10;99.90
8475;DHT22;4274;52.012;8.448;2023-01-28T16:13:30;-0.10;99.90
8475;DHT22;4274;52.012;8.448;2023-01-28T16:15:57;-0.10;99.90
8475;DHT22;4274;52.012;8.448;2023-01-28T16:18:40;-0.10;99.90
8475;DHT22;4274;52.012;8.448;2023-01-28T16:21:10;-0.20;99.90
8475;DHT22;4274;52.012;8.448;2023-01-28T16:23:37;-0.20;99.90
8475;DHT22;4274;52.012;8.448;2023-01-28T16:26:05;-0.20;99.90
8475;DHT22;4274;52.012;8.448;2023-01-28T16:28:31;-0.10;99.90
8475;DHT22;4274;52.012;8.448;2023-01-28T16:30:58;-0.10;99.90
8475;DHT22;4274;52.012;8.448;2023-01-28T16:33:24;0.00;99.90
8475;DHT22;4274;52.012;8.448;2023-01-28T16:35:50;0.00;99.90
8475;DHT22;4274;52.012;8.448;2023-01-28T16:38:17;0.10;99.90
8475;DHT22;4274;52.012;8.448;2023-01-28T16:40:43;0.10;99.90
8475;DHT22;4274;52.012;8.448;2023-01-28T16:43:11;0.10;99.90
8475;DHT22;4274;52.012;8.448;2023-01-28T16:45:37;0.00;99.90
8475;DHT22;4274;52.012;8.448;2023-01-28T16:48:03;0.00;99.90
8475;DHT22;4274;52.012;8.448;2023-01-28T16:50:30;-0.10;99.90
8475;DHT22;4274;52.012;8.448;2023-01-28T16:52:57;-0.10;99.90
8475;DHT22;4274;52.012;8.448;2023-01-28T16:55:23;-0.20;99.90
8475;DHT22;4274;52.012;8.448;2023-01-28T16:57:51;-0.20;99.90
8475;DHT22;4274;52.012;8.448;2023-01-28T17:00:23;-0.30;99.90
8475;DHT22;4274;52.012;8.448;2023-01-28T17:02:50;-0.40;99.90
8475;DHT22;4274;52.012;8.448;2023-01-28T17:05:16;-0.50;99.90
8475;DHT22;4274;52.012;8.448;2023-01-28T17:07:42;-0.60;99.90
8475;DHT22;4274;52.012;8.448;2023-01-28T17:10:09;-0.70;99.90
8475;DHT22;4274;52.012;8.448;2023-01-28T17:12:35;-0.80;99.90
8475;DHT22;4274;52.012;8.448;2023-01-28T17:15:01;-0.80;99.90
8475;DHT22;4274;52.012;8.448;2023-01-28T17:17:28;-0.80;99.90
8475;DHT22;4274;52.012;8.448;2023-01-28T17:19:54;-0.90;99.90
8475;DHT22;4274;52.012;8.448;2023-01-28T17:22:19;-0.90;99.90
8475;DHT22;4274;52.012;8.448;2023-01-28T17:24:45;-1.00;99.90
8475;DHT22;4274;52.012;8.448;2023-01-28T17:27:11;-1.10;99.90
8475;DHT22;4274;52.012;8.448;2023-01-28T17:29:36;-1.20;99.90
8475;DHT22;4274;52.012;8.448;2023-01-28T17:32:02;-1.30;99.90
8475;DHT22;4274;52.012;8.448;2023-01-28T17:34:28;-1.40;99.90
8475;DHT22;4274;52.012;8.448;2023-01-28T17:36:53;-1.40;99.90
8475;DHT22;4274;52.012;8.448;2023-01-28T17:39:19;-1.50;99.90
8475;DHT22;4274;52.012;8.448;2023-01-28T17:41:44;-1.40;99.90
8475;DHT22;4274;52.012;8.448;2023-01-28T17:44:11;-1.40;99.90
8475;DHT22;4274;52.012;8.448;2023-01-28T17:46:39;-1.40;99.90
8475;DHT22;4274;52.012;8.448;2023-01-28T17:49:04;-1.40;99.90
8475;DHT22;4274;52.012;8.448;2023-01-28T17:51:30;-1.30;99.90
8475;DHT22;4274;52.012;8.448;2023-01-28T17:53:55;-1.40;99.90
8475;DHT22;4274;52.012;8.448;2023-01-28T17:56:24;-1.40;99.90
8475;DHT22;4274;52.012;8.448;2023-01-28T17:58:51;-1.50;99.90
8475;DHT22;4274;52.012;8.448;2023-01-28T18:01:18;-1.60;99.90
8475;DHT22;4274;52.012;8.448;2023-01-28T18:03:44;-1.70;99.90
8475;DHT22;4274;52.012;8.448;2023-01-28T18:06:09;-1.70;99.90
8475;DHT22;4274;52.012;8.448;2023-01-28T18:08:35;-1.80;99.90
8475;DHT22;4274;52.012;8.448;2023-01-28T18:11:01;-1.80;99.90
8475;DHT22;4274;52.012;8.448;2023-01-28T18:13:31;-1.80;99.90